createdAt,value
2022-08-03T00:00:30.890Z,88.23
2022-08-03T00:01:32.554Z,88.68
2022-08-03T00:02:30.562Z,88.73
2022-08-03T00:03:29.843Z,88.32
2022-08-03T00:04:34.110Z,88.12
2022-08-03T00:05:29.790Z,88.23
2022-08-03T00:06:33.772Z,88.12
2022-08-03T00:07:30.761Z,88.63
2022-08-03T00:08:29.778Z,88.32
2022-08-03T00:09:35.502Z,88.73
2022-08-03T00:10:30.795Z,88.73
2022-08-03T00:11:29.709Z,88.02
2022-08-03T00:12:32.565Z,88.23
2022-08-03T00:13:30.554Z,88.83
2022-08-03T00:14:29.677Z,88.23
2022-08-03T00:15:29.668Z,88.02
2022-08-03T00:16:29.688Z,88.23
2022-08-03T00:17:30.092Z,88.83
2022-08-03T00:18:31.561Z,88.73
2022-08-03T00:19:36.560Z,88.23
2022-08-03T00:20:50.636Z,88.63
2022-08-03T00:21:30.563Z,88.73
2022-08-03T00:22:32.551Z,88.87
2022-08-03T00:23:50.841Z,88.73
2022-08-03T00:24:30.582Z,89.23
2022-08-03T00:25:30.068Z,88.83
2022-08-03T00:26:29.573Z,87.93
2022-08-03T00:27:30.055Z,87.82
2022-08-03T00:28:30.054Z,88.73
2022-08-03T00:29:30.088Z,88.32
2022-08-03T00:30:30.892Z,88.32
2022-08-03T00:31:47.041Z,88.02
2022-08-03T00:32:30.513Z,88.32
2022-08-03T00:33:30.081Z,88.02
2022-08-03T00:34:57.865Z,88.12
2022-08-03T00:35:37.084Z,88.23
2022-08-03T00:36:31.066Z,88.32
2022-08-03T00:37:41.459Z,87.73
2022-08-03T00:38:37.056Z,87.82
2022-08-03T00:39:30.076Z,87.22
2022-08-03T00:40:30.054Z,87.42
2022-08-03T00:41:29.387Z,87.93
2022-08-03T00:42:30.063Z,87.73
2022-08-03T00:43:29.385Z,87.52
2022-08-03T00:44:30.056Z,88.23
2022-08-03T00:45:30.076Z,87.52
2022-08-03T00:46:29.326Z,87.93
2022-08-03T00:47:32.064Z,87.82
2022-08-03T00:48:33.603Z,87.93
2022-08-03T00:49:29.379Z,87.62
2022-08-03T00:50:30.093Z,87.73
2022-08-03T00:51:29.273Z,87.62
2022-08-03T00:52:32.056Z,87.82
2022-08-03T00:53:30.086Z,87.82
2022-08-03T00:54:30.065Z,87.82
2022-08-03T00:55:29.242Z,88.02
2022-08-03T00:56:30.108Z,88.23
2022-08-03T00:57:32.065Z,88.32
2022-08-03T00:58:36.065Z,88.23
2022-08-03T00:59:31.100Z,88.37
2022-08-03T01:00:30.057Z,87.62
2022-08-03T01:01:32.551Z,88.23
2022-08-03T01:02:30.058Z,87.42
2022-08-03T01:03:30.067Z,87.82
2022-08-03T01:04:30.067Z,87.46
2022-08-03T01:05:31.112Z,88.32
2022-08-03T01:06:32.065Z,88.12
2022-08-03T01:07:29.087Z,87.93
2022-08-03T01:08:30.065Z,88.23
2022-08-03T01:09:29.068Z,88.12
2022-08-03T01:10:31.683Z,87.82
2022-08-03T01:11:31.565Z,87.82
2022-08-03T01:12:35.563Z,87.62
2022-08-03T01:14:02.023Z,88.02
2022-08-03T01:14:30.021Z,88.02
2022-08-03T01:15:29.038Z,87.42
2022-08-03T01:16:36.678Z,87.62
2022-08-03T01:17:29.982Z,87.73
2022-08-03T01:18:35.559Z,88.32
2022-08-03T01:19:35.569Z,88.63
2022-08-03T01:20:31.571Z,89.17
2022-08-03T01:21:32.103Z,89.23
2022-08-03T01:22:31.575Z,88.93
2022-08-03T01:23:29.197Z,88.53
2022-08-03T01:24:31.577Z,88.77
2022-08-03T01:25:28.879Z,87.62
2022-08-03T01:26:30.602Z,87.62
2022-08-03T01:27:30.601Z,87.32
2022-08-03T01:28:31.574Z,87.02
2022-08-03T01:29:31.574Z,86.72
2022-08-03T01:30:35.577Z,86.62
2022-08-03T01:31:32.097Z,86.48
2022-08-03T01:32:58.669Z,86.52
2022-08-03T01:33:30.570Z,85.97
2022-08-03T01:34:31.578Z,86.18
2022-08-03T01:35:28.817Z,85.88
2022-08-03T01:36:31.573Z,85.38
2022-08-03T01:37:35.573Z,85.78
2022-08-03T01:38:31.580Z,85.47
2022-08-03T01:39:29.580Z,85.44
2022-08-03T01:40:31.587Z,84.97
2022-08-03T01:41:30.788Z,84.88
2022-08-03T01:42:31.575Z,84.83
2022-08-03T01:44:27.043Z,84.74
2022-08-03T01:44:32.580Z,85.03
2022-08-03T01:45:43.570Z,84.43
2022-08-03T01:46:31.573Z,84.43
2022-08-03T01:47:30.613Z,83.93
2022-08-03T01:48:29.567Z,83.93
2022-08-03T01:49:31.623Z,84.23
2022-08-03T01:50:35.595Z,84.83
2022-08-03T01:52:02.900Z,85.03
2022-08-03T01:52:32.075Z,85.03
2022-08-03T01:53:33.608Z,85.13
2022-08-03T01:54:28.567Z,84.83
2022-08-03T01:55:31.085Z,85.13
2022-08-03T01:56:49.534Z,84.83
2022-08-03T01:57:31.081Z,85.27
2022-08-03T01:58:31.073Z,85.27
2022-08-03T01:59:30.096Z,84.88
2022-08-03T02:00:31.080Z,85.38
2022-08-03T02:02:27.541Z,86.28
2022-08-03T02:02:32.857Z,86.18
2022-08-03T02:03:31.086Z,86.28
2022-08-03T02:04:31.085Z,86.58
2022-08-03T02:05:31.094Z,86.62
2022-08-03T02:06:59.926Z,86.78
2022-08-03T02:07:29.396Z,87.22
2022-08-03T02:08:29.991Z,87.38
2022-08-03T02:09:35.072Z,86.88
2022-08-03T02:10:35.252Z,86.42
2022-08-03T02:11:30.080Z,86.62
2022-08-03T02:12:28.356Z,87.12
2022-08-03T02:13:28.342Z,87.32
2022-08-03T02:14:31.070Z,87.22
2022-08-03T02:15:28.357Z,87.22
2022-08-03T02:16:31.076Z,87.22
2022-08-03T02:17:39.779Z,87.52
2022-08-03T02:18:29.267Z,87.73
2022-08-03T02:19:31.395Z,88.02
2022-08-03T02:20:30.168Z,88.12
2022-08-03T02:21:57.090Z,88.57
2022-08-03T02:22:32.084Z,88.67
2022-08-03T02:23:28.221Z,88.57
2022-08-03T02:24:28.209Z,89.07
2022-08-03T02:25:28.201Z,89.37
2022-08-03T02:26:30.099Z,88.87
2022-08-03T02:27:28.176Z,88.67
2022-08-03T02:28:31.082Z,88.77
2022-08-03T02:29:39.299Z,88.67
2022-08-03T02:30:30.073Z,89.27
2022-08-03T02:31:29.088Z,88.87
2022-08-03T02:32:31.083Z,88.77
2022-08-03T02:33:35.080Z,88.77
2022-08-03T02:34:31.077Z,88.77
2022-08-03T02:35:28.106Z,88.97
2022-08-03T02:36:28.071Z,89.78
2022-08-03T02:37:34.578Z,88.97
2022-08-03T02:38:28.104Z,89.27
2022-08-03T02:39:28.067Z,89.27
2022-08-03T02:40:28.034Z,89.37
2022-08-03T02:41:28.021Z,89.37
2022-08-03T02:42:28.021Z,89.67
2022-08-03T02:43:28.111Z,89.58
2022-08-03T02:44:35.584Z,89.37
2022-08-03T02:45:27.976Z,89.27
2022-08-03T02:46:27.964Z,89.67
2022-08-03T02:47:27.961Z,89.67
2022-08-03T02:48:27.948Z,89.17
2022-08-03T02:49:41.061Z,89.27
2022-08-03T02:50:35.603Z,89.62
2022-08-03T02:51:27.928Z,89.47
2022-08-03T02:52:27.900Z,89.51
2022-08-03T02:53:30.578Z,89.42
2022-08-03T02:54:27.931Z,89.42
2022-08-03T02:55:27.870Z,89.37
2022-08-03T02:56:27.852Z,89.92
2022-08-03T02:57:27.842Z,90.02
2022-08-03T02:58:27.845Z,89.92
2022-08-03T02:59:27.824Z,89.82
2022-08-03T03:00:28.728Z,89.82
2022-08-03T03:01:27.861Z,89.62
2022-08-03T03:02:27.799Z,89.82
2022-08-03T03:03:27.782Z,90.02
2022-08-03T03:04:28.586Z,90.72
2022-08-03T03:05:55.484Z,90.52
2022-08-03T03:06:29.586Z,90.36
2022-08-03T03:07:28.857Z,90.66
2022-08-03T03:08:28.697Z,90.62
2022-08-03T03:09:39.952Z,90.56
2022-08-03T03:10:30.615Z,91.06
2022-08-03T03:11:31.586Z,90.77
2022-08-03T03:12:27.683Z,90.97
2022-08-03T03:13:27.674Z,90.86
2022-08-03T03:14:34.585Z,90.86
2022-08-03T03:15:28.584Z,90.66
2022-08-03T03:16:27.634Z,91.06
2022-08-03T03:17:31.606Z,91.17
2022-08-03T03:18:27.621Z,90.77
2022-08-03T03:19:27.615Z,91.06
2022-08-03T03:20:30.747Z,90.97
2022-08-03T03:21:27.592Z,90.66
2022-08-03T03:22:27.582Z,90.66
2022-08-03T03:23:27.578Z,90.86
2022-08-03T03:24:27.556Z,90.77
2022-08-03T03:25:27.553Z,91.27
2022-08-03T03:26:27.536Z,91.17
2022-08-03T03:27:28.095Z,91.47
2022-08-03T03:28:27.526Z,91.27
2022-08-03T03:29:27.505Z,90.97
2022-08-03T03:30:27.499Z,91.37
2022-08-03T03:31:27.481Z,91.17
2022-08-03T03:32:27.620Z,91.17
2022-08-03T03:33:28.600Z,91.31
2022-08-03T03:34:34.097Z,91.01
2022-08-03T03:35:42.090Z,91.31
2022-08-03T03:36:27.430Z,91.11
2022-08-03T03:37:27.434Z,90.97
2022-08-03T03:38:34.098Z,91.06
2022-08-03T03:39:27.408Z,91.31
2022-08-03T03:40:27.392Z,91.27
2022-08-03T03:41:28.095Z,91.71
2022-08-03T03:42:29.087Z,92.02
2022-08-03T03:43:27.371Z,92.22
2022-08-03T03:44:27.617Z,92.22
2022-08-03T03:45:27.347Z,91.82
2022-08-03T03:46:28.088Z,92.02
2022-08-03T03:47:32.564Z,92.02
2022-08-03T03:48:27.296Z,91.91
2022-08-03T03:49:27.359Z,92.72
2022-08-03T03:50:27.287Z,92.16
2022-08-03T03:51:27.276Z,92.61
2022-08-03T03:52:27.252Z,92.32
2022-08-03T03:53:28.101Z,92.82
2022-08-03T03:54:29.440Z,92.02
2022-08-03T03:55:28.109Z,92.41
2022-08-03T03:56:27.229Z,92.22
2022-08-03T03:57:27.208Z,92.72
2022-08-03T03:58:27.280Z,92.32
2022-08-03T03:59:27.175Z,92.52
2022-08-03T04:00:27.177Z,92.46
2022-08-03T04:01:27.146Z,92.26
2022-08-03T04:02:28.099Z,92.72
2022-08-03T04:03:27.132Z,92.22
2022-08-03T04:04:27.141Z,92.36
2022-08-03T04:05:27.104Z,92.52
2022-08-03T04:06:27.126Z,92.76
2022-08-03T04:07:41.603Z,92.66
2022-08-03T04:08:27.074Z,92.86
2022-08-03T04:09:27.066Z,93.07
2022-08-03T04:10:27.063Z,93.37
2022-08-03T04:11:30.364Z,93.16
2022-08-03T04:12:33.600Z,93.22
2022-08-03T04:13:27.019Z,92.96
2022-08-03T04:14:27.014Z,93.07
2022-08-03T04:15:26.996Z,93.46
2022-08-03T04:16:27.594Z,93.16
2022-08-03T04:17:26.989Z,93.37
2022-08-03T04:18:26.970Z,93.16
2022-08-03T04:19:27.118Z,93.27
2022-08-03T04:20:26.956Z,93.42
2022-08-03T04:21:26.927Z,93.46
2022-08-03T04:22:26.919Z,93.22
2022-08-03T04:23:26.903Z,92.82
2022-08-03T04:24:27.135Z,92.86
2022-08-03T04:25:26.882Z,93.02
2022-08-03T04:26:26.877Z,92.86
2022-08-03T04:27:26.881Z,92.76
2022-08-03T04:28:31.262Z,92.92
2022-08-03T04:29:26.849Z,92.32
2022-08-03T04:30:41.599Z,92.41
2022-08-03T04:31:26.823Z,92.61
2022-08-03T04:32:26.832Z,93.42
2022-08-03T04:33:29.429Z,93.02
2022-08-03T04:34:26.782Z,93.22
2022-08-03T04:35:26.791Z,93.42
2022-08-03T04:36:27.758Z,93.02
2022-08-03T04:37:26.743Z,92.92
2022-08-03T04:38:27.610Z,92.52
2022-08-03T04:39:26.735Z,92.88
2022-08-03T04:40:29.746Z,93.22
2022-08-03T04:41:27.714Z,93.38
2022-08-03T04:42:26.694Z,92.92
2022-08-03T04:43:26.680Z,92.68
2022-08-03T04:44:28.422Z,92.22
2022-08-03T04:45:26.662Z,92.41
2022-08-03T04:46:27.605Z,92.68
2022-08-03T04:47:26.653Z,92.47
2022-08-03T04:48:26.631Z,92.97
2022-08-03T04:49:26.796Z,93.18
2022-08-03T04:50:26.607Z,92.57
2022-08-03T04:51:26.602Z,92.68
2022-08-03T04:52:26.595Z,93.08
2022-08-03T04:53:26.654Z,93.08
2022-08-03T04:54:26.574Z,93.28
2022-08-03T04:55:29.102Z,93.18
2022-08-03T04:56:33.114Z,92.97
2022-08-03T04:57:26.527Z,93.28
2022-08-03T04:58:26.525Z,93.38
2022-08-03T04:59:26.623Z,93.13
2022-08-03T05:00:27.116Z,92.68
2022-08-03T05:01:26.507Z,92.27
2022-08-03T05:02:26.524Z,92.47
2022-08-03T05:03:27.098Z,92.68
2022-08-03T05:04:26.459Z,92.53
2022-08-03T05:05:26.454Z,92.63
2022-08-03T05:06:27.432Z,92.17
2022-08-03T05:07:26.418Z,92.03
2022-08-03T05:08:28.225Z,92.13
2022-08-03T05:09:45.991Z,92.13
2022-08-03T05:10:27.391Z,91.72
2022-08-03T05:11:26.377Z,91.32
2022-08-03T05:12:29.434Z,91.52
2022-08-03T05:13:27.378Z,91.52
2022-08-03T05:14:27.956Z,91.38
2022-08-03T05:15:26.341Z,91.42
2022-08-03T05:16:33.108Z,91.18
2022-08-03T05:17:27.342Z,90.98
2022-08-03T05:18:26.300Z,91.08
2022-08-03T05:19:36.105Z,90.98
2022-08-03T05:20:27.110Z,90.98
2022-08-03T05:21:26.304Z,91.08
2022-08-03T05:22:27.254Z,90.64
2022-08-03T05:23:27.116Z,90.94
2022-08-03T05:24:27.103Z,90.84
2022-08-03T05:25:27.550Z,90.84
2022-08-03T05:26:26.219Z,91.03
2022-08-03T05:27:26.242Z,91.03
2022-08-03T05:28:26.197Z,91.14
2022-08-03T05:29:26.639Z,90.73
2022-08-03T05:30:34.344Z,90.53
2022-08-03T05:31:27.109Z,89.89
2022-08-03T05:32:26.636Z,89.89
2022-08-03T05:33:29.116Z,89.69
2022-08-03T05:34:26.140Z,89.69
2022-08-03T05:35:57.546Z,89.59
2022-08-03T05:36:27.107Z,89.69
2022-08-03T05:37:26.122Z,89.59
2022-08-03T05:38:28.767Z,89.59
2022-08-03T05:39:27.617Z,89.79
2022-08-03T05:40:26.077Z,89.45
2022-08-03T05:41:36.662Z,89.65
2022-08-03T05:42:27.069Z,89.25
2022-08-03T05:43:26.041Z,89.75
2022-08-03T05:44:26.023Z,89.45
2022-08-03T05:45:28.356Z,89.11
2022-08-03T05:46:26.000Z,89.00
2022-08-03T05:47:26.149Z,88.40
2022-08-03T05:48:25.978Z,88.50
2022-08-03T05:49:26.249Z,88.70
2022-08-03T05:50:25.957Z,88.36
2022-08-03T05:51:25.948Z,88.70
2022-08-03T05:52:26.149Z,88.16
2022-08-03T05:53:25.940Z,87.36
2022-08-03T05:54:56.293Z,87.05
2022-08-03T05:55:26.897Z,86.76
2022-08-03T05:56:26.163Z,87.16
2022-08-03T05:57:25.873Z,86.25
2022-08-03T05:58:25.864Z,86.61
2022-08-03T05:59:38.280Z,86.61
2022-08-03T06:00:26.843Z,86.41
2022-08-03T06:01:26.159Z,86.52
2022-08-03T06:02:25.810Z,86.41
2022-08-03T06:03:25.811Z,85.82
2022-08-03T06:04:25.790Z,86.11
2022-08-03T06:05:25.772Z,85.71
2022-08-03T06:06:30.539Z,85.77
2022-08-03T06:07:26.785Z,86.07
2022-08-03T06:08:25.746Z,85.27
2022-08-03T06:09:31.856Z,84.97
2022-08-03T06:10:35.045Z,84.77
2022-08-03T06:11:27.624Z,84.23
2022-08-03T06:12:25.700Z,83.93
2022-08-03T06:13:25.735Z,83.73
2022-08-03T06:14:25.676Z,84.03
2022-08-03T06:15:25.675Z,83.99
2022-08-03T06:16:26.614Z,83.99
2022-08-03T06:17:25.679Z,82.79
2022-08-03T06:18:25.634Z,82.09
2022-08-03T06:19:25.629Z,81.69
2022-08-03T06:20:27.306Z,82.49
2022-08-03T06:21:25.602Z,81.99
2022-08-03T06:22:25.603Z,81.85
2022-08-03T06:23:54.141Z,82.45
2022-08-03T06:24:26.605Z,82.55
2022-08-03T06:25:25.565Z,81.15
2022-08-03T06:26:25.572Z,80.95
2022-08-03T06:27:36.578Z,81.15
2022-08-03T06:28:54.865Z,81.15
2022-08-03T06:29:26.540Z,81.92
2022-08-03T06:30:28.140Z,81.92
2022-08-03T06:31:25.513Z,80.91
2022-08-03T06:32:25.481Z,81.61
2022-08-03T06:33:25.482Z,81.41
2022-08-03T06:34:33.027Z,82.01
2022-08-03T06:35:26.654Z,81.01
2022-08-03T06:36:25.447Z,80.32
2022-08-03T06:37:25.428Z,81.01
2022-08-03T06:38:25.425Z,81.21
2022-08-03T06:39:25.660Z,81.01
2022-08-03T06:40:25.395Z,80.38
2022-08-03T06:41:25.381Z,80.77
2022-08-03T06:42:26.127Z,80.58
2022-08-03T06:43:25.364Z,80.98
2022-08-03T06:44:25.370Z,79.88
2022-08-03T06:45:25.347Z,79.88
2022-08-03T06:46:27.173Z,79.48
2022-08-03T06:47:38.215Z,79.78
2022-08-03T06:48:29.121Z,79.44
2022-08-03T06:49:25.437Z,79.74
2022-08-03T06:50:26.298Z,79.54
2022-08-03T06:52:03.302Z,79.44
2022-08-03T06:52:38.030Z,79.34
2022-08-03T06:53:29.124Z,79.54
2022-08-03T06:54:25.252Z,79.44
2022-08-03T06:55:25.250Z,79.04
2022-08-03T06:56:25.254Z,78.41
2022-08-03T06:57:26.147Z,77.91
2022-08-03T06:58:28.135Z,78.20
2022-08-03T07:00:08.895Z,78.37
2022-08-03T07:00:27.165Z,78.37
2022-08-03T07:01:25.214Z,77.97
2022-08-03T07:02:25.156Z,78.07
2022-08-03T07:03:25.144Z,77.57
2022-08-03T07:04:25.633Z,77.77
2022-08-03T07:05:25.154Z,78.13
2022-08-03T07:06:25.166Z,77.83
2022-08-03T07:07:25.114Z,77.27
2022-08-03T07:08:33.413Z,77.43
2022-08-03T07:09:28.638Z,78.13
2022-08-03T07:10:25.195Z,77.43
2022-08-03T07:11:25.075Z,77.63
2022-08-03T07:12:25.164Z,76.54
2022-08-03T07:13:25.037Z,77.00
2022-08-03T07:14:25.024Z,77.00
2022-08-03T07:15:54.014Z,77.09
2022-08-03T07:16:26.632Z,76.60
2022-08-03T07:17:25.005Z,76.10
2022-08-03T07:18:29.167Z,75.80
2022-08-03T07:19:25.978Z,76.36
2022-08-03T07:20:24.946Z,76.66
2022-08-03T07:21:24.949Z,76.56
2022-08-03T07:22:25.164Z,75.96
2022-08-03T07:23:27.632Z,76.76
2022-08-03T07:24:39.633Z,75.46
2022-08-03T07:25:24.908Z,75.16
2022-08-03T07:26:25.640Z,75.37
2022-08-03T07:27:25.171Z,75.37
2022-08-03T07:28:25.637Z,75.33
2022-08-03T07:29:24.860Z,75.23
2022-08-03T07:30:24.834Z,75.33
2022-08-03T07:31:24.836Z,74.63
2022-08-03T07:32:25.165Z,74.63
2022-08-03T07:33:24.827Z,75.63
2022-08-03T07:34:24.799Z,75.33
2022-08-03T07:35:25.819Z,75.33
2022-08-03T07:36:24.774Z,75.13
2022-08-03T07:37:24.772Z,74.99
2022-08-03T07:38:24.784Z,75.33
2022-08-03T07:39:25.641Z,74.50
2022-08-03T07:40:25.105Z,75.49
2022-08-03T07:41:25.723Z,74.20
2022-08-03T07:42:24.724Z,74.10
2022-08-03T07:43:24.707Z,75.20
2022-08-03T07:44:25.170Z,74.16
2022-08-03T07:45:27.644Z,72.77
2022-08-03T07:46:24.669Z,73.27
2022-08-03T07:47:24.662Z,73.97
2022-08-03T07:48:24.687Z,73.77
2022-08-03T07:49:26.843Z,73.57
2022-08-03T07:50:25.144Z,73.47
2022-08-03T07:51:24.622Z,73.07
2022-08-03T07:52:25.151Z,73.54
2022-08-03T07:53:27.140Z,73.63
2022-08-03T07:54:25.153Z,72.44
2022-08-03T07:55:24.622Z,72.84
2022-08-03T07:56:25.174Z,73.50
2022-08-03T07:57:24.559Z,73.03
2022-08-03T07:58:40.175Z,72.54
2022-08-03T07:59:24.530Z,73.69
2022-08-03T08:00:24.551Z,72.90
2022-08-03T08:01:24.614Z,72.64
2022-08-03T08:02:24.713Z,73.63
2022-08-03T08:03:24.485Z,73.10
2022-08-03T08:04:25.144Z,73.33
2022-08-03T08:05:25.149Z,73.90
2022-08-03T08:06:24.454Z,72.90
2022-08-03T08:07:27.162Z,73.50
2022-08-03T08:08:24.671Z,73.90
2022-08-03T08:09:24.434Z,74.09
2022-08-03T08:10:24.412Z,73.00
2022-08-03T08:11:24.394Z,72.60
2022-08-03T08:12:25.155Z,72.50
2022-08-03T08:13:24.678Z,73.50
2022-08-03T08:14:24.368Z,73.40
2022-08-03T08:15:27.142Z,72.97
2022-08-03T08:16:24.346Z,72.20
2022-08-03T08:17:25.151Z,71.97
2022-08-03T08:18:24.322Z,72.37
2022-08-03T08:19:24.343Z,71.58
2022-08-03T08:20:27.842Z,72.86
2022-08-03T08:21:24.282Z,72.33
2022-08-03T08:22:30.628Z,72.33
2022-08-03T08:23:42.463Z,71.44
2022-08-03T08:24:25.265Z,70.65
2022-08-03T08:25:24.245Z,70.95
2022-08-03T08:26:24.224Z,70.98
2022-08-03T08:27:24.226Z,71.25
2022-08-03T08:28:32.235Z,72.24
2022-08-03T08:29:25.232Z,70.75
2022-08-03T08:30:24.195Z,70.65
2022-08-03T08:31:25.153Z,70.65
2022-08-03T08:32:24.164Z,70.45
2022-08-03T08:33:25.736Z,70.42
2022-08-03T08:34:24.179Z,69.13
2022-08-03T08:35:24.148Z,68.99
2022-08-03T08:36:24.112Z,68.30
2022-08-03T08:37:24.114Z,68.99
2022-08-03T08:38:38.656Z,69.79
2022-08-03T08:39:24.082Z,70.38
2022-08-03T08:40:24.098Z,70.58
2022-08-03T08:41:24.182Z,68.90
2022-08-03T08:42:25.046Z,69.36
2022-08-03T08:43:24.048Z,69.76
2022-08-03T08:44:24.047Z,70.54
2022-08-03T08:45:26.659Z,68.76
2022-08-03T08:46:26.666Z,68.76
2022-08-03T08:47:23.997Z,68.57
2022-08-03T08:48:23.993Z,68.90
2022-08-03T08:49:24.028Z,68.57
2022-08-03T08:50:27.782Z,68.96
2022-08-03T08:51:24.978Z,69.09
2022-08-03T08:52:31.904Z,68.60
2022-08-03T08:53:27.324Z,69.06
2022-08-03T08:54:23.982Z,69.06
2022-08-03T08:55:23.913Z,68.90
2022-08-03T08:56:23.914Z,69.85
2022-08-03T08:57:41.916Z,67.64
2022-08-03T08:58:24.873Z,68.33
2022-08-03T08:59:23.866Z,68.53
2022-08-03T09:00:23.852Z,68.63
2022-08-03T09:01:24.228Z,68.13
2022-08-03T09:02:23.848Z,68.63
2022-08-03T09:03:29.884Z,67.35
2022-08-03T09:04:24.817Z,67.64
2022-08-03T09:05:41.417Z,67.84
2022-08-03T09:06:39.653Z,68.60
2022-08-03T09:07:23.800Z,68.90
2022-08-03T09:08:23.769Z,67.61
2022-08-03T09:09:28.515Z,68.30
2022-08-03T09:10:24.742Z,65.73
2022-08-03T09:11:51.413Z,66.32
2022-08-03T09:12:42.198Z,66.42
2022-08-03T09:13:24.705Z,66.49
2022-08-03T09:14:35.290Z,66.29
2022-08-03T09:15:31.662Z,65.10
2022-08-03T09:16:23.681Z,65.53
2022-08-03T09:17:23.698Z,64.94
2022-08-03T09:18:23.668Z,64.81
2022-08-03T09:19:24.647Z,65.59
2022-08-03T09:20:23.642Z,64.81
2022-08-03T09:21:31.819Z,65.37
2022-08-03T09:22:24.644Z,66.29
2022-08-03T09:24:00.578Z,64.97
2022-08-03T09:24:40.790Z,64.67
2022-08-03T09:25:25.235Z,64.78
2022-08-03T09:26:23.602Z,64.48
2022-08-03T09:27:23.563Z,64.38
2022-08-03T09:28:52.833Z,64.38
2022-08-03T09:29:24.708Z,64.84
2022-08-03T09:30:34.715Z,64.64
2022-08-03T09:31:27.160Z,64.15
2022-08-03T09:32:23.504Z,63.62
2022-08-03T09:33:26.164Z,64.02
2022-08-03T09:34:24.499Z,63.53
2022-08-03T09:35:33.048Z,63.53
2022-08-03T09:36:25.159Z,62.54
2022-08-03T09:38:08.594Z,63.72
2022-08-03T09:38:27.173Z,62.54
2022-08-03T09:39:40.424Z,62.54
2022-08-03T09:40:24.420Z,63.03
2022-08-03T09:41:30.176Z,64.61
2022-08-03T09:42:23.650Z,64.32
2022-08-03T09:43:23.393Z,64.48
2022-08-03T09:44:24.886Z,63.69
2022-08-03T09:45:44.708Z,62.60
2022-08-03T09:46:23.366Z,62.60
2022-08-03T09:47:28.007Z,63.37
2022-08-03T09:48:23.346Z,62.68
2022-08-03T09:49:23.384Z,60.77
2022-08-03T09:50:23.335Z,61.56
2022-08-03T09:52:28.834Z,61.07
2022-08-03T09:52:32.330Z,61.66
2022-08-03T09:53:24.278Z,59.69
2022-08-03T09:54:26.179Z,62.12
2022-08-03T09:55:23.515Z,60.74
2022-08-03T09:56:35.567Z,59.85
2022-08-03T09:57:24.228Z,59.78
2022-08-03T09:58:26.175Z,60.47
2022-08-03T09:59:23.213Z,59.46
2022-08-03T10:00:23.221Z,60.41
2022-08-03T10:01:26.208Z,60.81
2022-08-03T10:02:23.196Z,59.70
2022-08-03T10:03:23.173Z,60.58
2022-08-03T10:04:23.671Z,60.29
2022-08-03T10:05:23.679Z,59.70
2022-08-03T10:06:23.177Z,60.68
2022-08-03T10:07:26.681Z,58.94
2022-08-03T10:08:23.134Z,60.22
2022-08-03T10:09:44.108Z,59.72
2022-08-03T10:10:30.371Z,60.78
2022-08-03T10:11:24.198Z,59.70
2022-08-03T10:12:23.076Z,59.99
2022-08-03T10:13:23.679Z,59.99
2022-08-03T10:14:23.058Z,57.92
2022-08-03T10:16:21.661Z,59.11
2022-08-03T10:16:25.523Z,58.88
2022-08-03T10:17:23.021Z,57.92
2022-08-03T10:18:23.025Z,60.06
2022-08-03T10:19:22.988Z,59.08
2022-08-03T10:20:23.670Z,58.19
2022-08-03T10:21:22.975Z,58.88
2022-08-03T10:22:23.220Z,57.90
2022-08-03T10:23:23.687Z,58.09
2022-08-03T10:24:22.971Z,57.90
2022-08-03T10:25:22.942Z,58.69
2022-08-03T10:26:23.918Z,59.17
2022-08-03T10:27:22.894Z,59.64
2022-08-03T10:28:22.912Z,58.26
2022-08-03T10:29:23.693Z,56.79
2022-08-03T10:30:26.139Z,56.76
2022-08-03T10:31:22.862Z,57.05
2022-08-03T10:32:22.849Z,57.64
2022-08-03T10:33:49.737Z,56.76
2022-08-03T10:34:23.858Z,56.27
2022-08-03T10:35:22.840Z,55.26
2022-08-03T10:36:22.812Z,55.28
2022-08-03T10:37:22.803Z,55.48
2022-08-03T10:38:22.798Z,54.99
2022-08-03T10:39:22.756Z,55.60
2022-08-03T10:40:33.479Z,57.18
2022-08-03T10:41:23.752Z,56.00
2022-08-03T10:42:22.763Z,56.98
2022-08-03T10:43:23.679Z,57.57
2022-08-03T10:44:23.792Z,56.29
2022-08-03T10:45:22.714Z,56.66
2022-08-03T10:46:23.727Z,54.69
2022-08-03T10:47:23.699Z,54.30
2022-08-03T10:48:22.690Z,54.89
2022-08-03T10:49:33.793Z,55.08
2022-08-03T10:50:23.659Z,56.53
2022-08-03T10:51:22.690Z,54.96
2022-08-03T10:52:32.788Z,55.06
2022-08-03T10:53:30.182Z,55.06
2022-08-03T10:54:22.622Z,55.16
2022-08-03T10:55:22.749Z,56.07
2022-08-03T10:56:46.672Z,56.98
2022-08-03T10:57:23.735Z,57.74
2022-08-03T10:58:30.565Z,55.48
2022-08-03T10:59:27.708Z,57.15
2022-08-03T11:00:22.683Z,56.27
2022-08-03T11:01:22.740Z,54.60
2022-08-03T11:02:22.558Z,55.58
2022-08-03T11:03:22.548Z,54.79
2022-08-03T11:04:23.196Z,56.93
2022-08-03T11:05:25.199Z,57.78
2022-08-03T11:06:22.489Z,56.09
2022-08-03T11:07:23.169Z,56.58
2022-08-03T11:08:23.543Z,54.81
2022-08-03T11:09:23.183Z,54.02
2022-08-03T11:10:22.465Z,54.44
2022-08-03T11:11:22.434Z,54.64
2022-08-03T11:12:28.955Z,54.54
2022-08-03T11:13:23.425Z,54.93
2022-08-03T11:14:22.479Z,52.77
2022-08-03T11:15:23.447Z,55.03
2022-08-03T11:16:22.528Z,55.03
2022-08-03T11:17:22.377Z,52.77
2022-08-03T11:18:22.725Z,54.02
2022-08-03T11:19:22.372Z,53.53
2022-08-03T11:20:25.194Z,54.32
2022-08-03T11:21:22.335Z,54.10
2022-08-03T11:22:22.317Z,54.39
2022-08-03T11:24:02.094Z,54.58
2022-08-03T11:24:23.370Z,55.05
2022-08-03T11:25:53.989Z,54.36
2022-08-03T11:26:24.193Z,53.58
2022-08-03T11:27:22.735Z,52.82
2022-08-03T11:28:22.733Z,52.72
2022-08-03T11:29:22.235Z,54.39
2022-08-03T11:30:22.244Z,52.25
2022-08-03T11:31:47.939Z,51.79
2022-08-03T11:32:23.211Z,53.36
2022-08-03T11:33:22.224Z,51.89
2022-08-03T11:34:22.192Z,53.73
2022-08-03T11:35:23.241Z,52.92
2022-08-03T11:36:32.519Z,52.33
2022-08-03T11:37:24.095Z,52.62
2022-08-03T11:38:23.731Z,53.77
2022-08-03T11:39:22.234Z,55.54
2022-08-03T11:40:36.701Z,53.55
2022-08-03T11:41:22.225Z,53.48
2022-08-03T11:42:22.114Z,52.86
2022-08-03T11:43:22.095Z,52.80
2022-08-03T11:44:24.704Z,54.93
2022-08-03T11:45:22.226Z,54.04
2022-08-03T11:46:28.664Z,54.21
2022-08-03T11:47:23.248Z,53.06
2022-08-03T11:48:22.719Z,54.85
2022-08-03T11:49:22.797Z,54.93
2022-08-03T11:50:22.250Z,51.98
2022-08-03T11:51:22.236Z,54.73
2022-08-03T11:52:27.167Z,57.06
2022-08-03T11:53:22.988Z,53.43
2022-08-03T11:54:21.979Z,52.94
2022-08-03T11:55:29.005Z,54.80
2022-08-03T11:56:23.251Z,52.62
2022-08-03T11:57:21.948Z,52.72
2022-08-03T11:59:01.582Z,50.29
2022-08-03T11:59:23.013Z,53.23
2022-08-03T12:00:21.918Z,51.93
2022-08-03T12:01:23.213Z,51.93
2022-08-03T12:02:22.949Z,50.66
2022-08-03T12:03:22.776Z,52.00
2022-08-03T12:04:22.243Z,50.85
2022-08-03T12:05:28.704Z,51.34
2022-08-03T12:06:36.718Z,50.78
2022-08-03T12:07:25.885Z,50.71
2022-08-03T12:08:22.858Z,52.86
2022-08-03T12:09:21.824Z,52.67
2022-08-03T12:10:22.703Z,52.99
2022-08-03T12:11:21.829Z,52.80
2022-08-03T12:12:21.791Z,52.92
2022-08-03T12:14:35.820Z,53.14
2022-08-03T12:14:48.981Z,54.12
2022-08-03T12:15:22.761Z,54.71
2022-08-03T12:16:21.750Z,54.17
2022-08-03T12:17:24.711Z,52.86
2022-08-03T12:18:22.243Z,52.76
2022-08-03T12:19:21.739Z,52.67
2022-08-03T12:20:34.899Z,52.76
2022-08-03T12:21:22.694Z,53.03
2022-08-03T12:22:21.686Z,53.72
2022-08-03T12:23:21.677Z,53.57
2022-08-03T12:24:21.737Z,51.61
2022-08-03T12:25:38.632Z,51.12
2022-08-03T12:26:23.220Z,49.53
2022-08-03T12:27:22.214Z,49.65
2022-08-03T12:28:37.459Z,49.46
2022-08-03T12:29:22.757Z,50.93
2022-08-03T12:30:22.207Z,49.07
2022-08-03T12:31:24.214Z,50.24
2022-08-03T12:32:24.440Z,51.83
2022-08-03T12:33:22.220Z,49.97
2022-08-03T12:34:21.571Z,50.95
2022-08-03T12:35:36.222Z,48.99
2022-08-03T12:36:22.219Z,51.64
2022-08-03T12:37:22.838Z,51.42
2022-08-03T12:38:24.215Z,50.95
2022-08-03T12:39:21.750Z,49.48
2022-08-03T12:40:25.162Z,50.07
2022-08-03T12:41:22.501Z,50.17
2022-08-03T12:42:21.472Z,49.99
2022-08-03T12:43:21.459Z,49.97
2022-08-03T12:44:24.223Z,49.07
2022-08-03T12:45:21.473Z,51.00
2022-08-03T12:46:21.426Z,49.41
2022-08-03T12:47:25.236Z,49.31
2022-08-03T12:48:21.416Z,49.29
2022-08-03T12:49:24.322Z,48.90
2022-08-03T12:50:21.746Z,49.29
2022-08-03T12:51:21.375Z,50.68
2022-08-03T12:52:22.225Z,47.77